createdAt,value
2019-02-23T00:04:33.437Z,29.57
2019-02-23T00:09:34.838Z,30.83
2019-02-23T00:14:36.330Z,29.63
2019-02-23T00:19:37.771Z,30.00
2019-02-23T00:24:39.219Z,29.33
2019-02-23T00:29:40.623Z,30.80
2019-02-23T00:34:42.030Z,30.00
2019-02-23T00:39:43.455Z,29.47
2019-02-23T00:44:44.867Z,28.43
2019-02-23T00:49:46.241Z,28.57
2019-02-23T00:54:47.622Z,28.33
2019-02-23T00:59:48.957Z,28.70
2019-02-23T01:04:50.441Z,26.13
2019-02-23T01:09:51.783Z,29.67
2019-02-23T01:14:53.166Z,27.70
2019-02-23T01:19:54.540Z,28.17
2019-02-23T01:24:56.078Z,27.90
2019-02-23T01:29:57.477Z,28.43
2019-02-23T01:34:58.808Z,29.70
2019-02-23T01:40:00.355Z,26.57
2019-02-23T01:45:02.181Z,25.70
2019-02-23T01:50:05.590Z,26.93
2019-02-23T01:55:07.031Z,26.67
2019-02-23T02:00:11.674Z,24.67
2019-02-23T02:05:13.729Z,21.40
2019-02-23T02:10:15.676Z,18.40
2019-02-23T02:15:17.204Z,17.10
2019-02-23T02:20:18.622Z,16.33
2019-02-23T02:25:21.062Z,15.60
2019-02-23T02:30:22.637Z,16.23
2019-02-23T02:35:24.044Z,18.03
2019-02-23T02:40:25.439Z,16.50
2019-02-23T02:45:26.770Z,25.83
2019-02-23T02:50:28.166Z,23.23
2019-02-23T02:55:31.580Z,19.53
2019-02-23T03:00:33.005Z,15.93
2019-02-23T03:05:34.402Z,17.20
2019-02-23T03:10:35.736Z,18.50
2019-02-23T03:15:37.121Z,13.97
2019-02-23T03:20:38.524Z,11.03
2019-02-23T03:25:39.932Z,10.13
2019-02-23T03:30:41.337Z,13.43
2019-02-23T03:35:42.792Z,13.23
2019-02-23T03:40:44.162Z,18.00
2019-02-23T03:45:45.486Z,12.40
2019-02-23T03:50:49.495Z,13.80
2019-02-23T03:55:50.303Z,15.40
2019-02-23T04:00:51.727Z,17.33
2019-02-23T04:05:53.126Z,19.50
2019-02-23T04:10:54.467Z,20.10
2019-02-23T04:15:55.843Z,19.27
2019-02-23T04:21:01.730Z,20.00
2019-02-23T04:26:00.634Z,19.73
2019-02-23T04:31:01.956Z,18.33
2019-02-23T04:36:03.442Z,18.07
2019-02-23T04:41:04.814Z,17.33
2019-02-23T04:46:06.151Z,15.67
2019-02-23T04:51:14.201Z,16.87
2019-02-23T04:56:10.872Z,16.03
2019-02-23T05:01:12.298Z,15.27
2019-02-23T05:06:13.679Z,12.87
2019-02-23T05:11:15.013Z,13.10
2019-02-23T05:16:16.496Z,12.87
2019-02-23T05:21:26.036Z,13.00
2019-02-23T05:26:21.316Z,13.07
2019-02-23T05:31:22.763Z,13.00
2019-02-23T05:36:24.252Z,11.93
2019-02-23T05:41:25.663Z,14.00
2019-02-23T05:46:27.176Z,14.23
2019-02-23T05:51:38.306Z,13.93
2019-02-23T05:56:31.938Z,14.47
2019-02-23T06:01:33.260Z,13.70
2019-02-23T06:06:34.660Z,13.37
2019-02-23T06:11:36.011Z,14.07
2019-02-23T06:16:37.373Z,14.30
2019-02-23T06:21:52.302Z,13.60
2019-02-23T06:26:42.044Z,13.03
2019-02-23T06:31:43.446Z,12.70
2019-02-23T06:36:44.859Z,14.27
2019-02-23T06:41:46.256Z,12.20
2019-02-23T06:46:47.583Z,11.57
2019-02-23T06:51:48.969Z,9.53
2019-02-23T06:56:50.306Z,9.77
2019-02-23T07:01:51.782Z,9.77
2019-02-23T07:06:53.143Z,12.60
2019-02-23T07:11:54.565Z,13.00
2019-02-23T07:16:55.967Z,13.17
2019-02-23T07:21:57.700Z,14.23
2019-02-23T07:26:59.115Z,14.03
2019-02-23T07:32:00.506Z,12.90
2019-02-23T07:37:01.922Z,13.60
2019-02-23T07:42:03.338Z,13.87
2019-02-23T07:47:04.789Z,12.97
2019-02-23T07:52:06.167Z,12.53
2019-02-23T07:57:07.595Z,13.00
2019-02-23T08:02:08.987Z,13.73
2019-02-23T08:07:10.319Z,11.67
2019-02-23T08:12:11.715Z,12.47
2019-02-23T08:17:13.091Z,12.43
2019-02-23T08:22:14.515Z,12.17
2019-02-23T08:27:15.937Z,11.83
2019-02-23T08:32:17.364Z,11.77
2019-02-23T08:37:18.743Z,12.17
2019-02-23T08:42:20.073Z,11.67
2019-02-23T08:47:21.467Z,11.33
2019-02-23T08:52:22.952Z,11.20
2019-02-23T08:57:24.415Z,11.07
2019-02-23T09:02:25.769Z,10.37
2019-02-23T09:07:27.192Z,10.73
2019-02-23T09:12:28.667Z,10.67
2019-02-23T09:17:30.046Z,11.53
2019-02-23T09:22:31.424Z,10.33
2019-02-23T09:27:32.866Z,10.93
2019-02-23T09:32:34.259Z,10.80
2019-02-23T09:37:35.684Z,11.83
2019-02-23T09:42:37.077Z,10.73
2019-02-23T09:47:38.598Z,10.93
2019-02-23T09:52:40.011Z,10.90
2019-02-23T09:57:41.410Z,11.30
2019-02-23T10:02:42.819Z,10.50
2019-02-23T10:07:44.210Z,10.07
2019-02-23T10:12:45.574Z,10.67
2019-02-23T10:17:46.971Z,11.40
2019-02-23T10:22:48.379Z,10.57
2019-02-23T10:27:49.801Z,11.10
2019-02-23T10:32:52.407Z,11.10
2019-02-23T10:37:54.741Z,10.83
2019-02-23T10:42:56.708Z,10.90
2019-02-23T10:47:58.172Z,10.20
2019-02-23T10:52:59.558Z,10.20
2019-02-23T10:58:01.014Z,10.77
2019-02-23T11:03:02.507Z,10.80
2019-02-23T11:08:04.064Z,11.00
2019-02-23T11:13:05.389Z,11.23
2019-02-23T11:18:06.861Z,11.30
2019-02-23T11:23:08.475Z,11.47
2019-02-23T11:28:10.298Z,10.57
2019-02-23T11:33:11.663Z,10.67
2019-02-23T11:38:13.065Z,10.97
2019-02-23T11:43:14.386Z,10.57
2019-02-23T11:48:15.786Z,11.27
2019-02-23T11:53:17.122Z,10.53
2019-02-23T11:58:18.493Z,10.97
2019-02-23T12:03:19.862Z,11.23
2019-02-23T12:08:21.213Z,10.97
2019-02-23T12:13:23.546Z,11.10
2019-02-23T12:18:24.983Z,11.00
2019-02-23T12:23:26.331Z,10.03
2019-02-23T12:28:27.685Z,11.37
2019-02-23T12:33:28.999Z,9.90
2019-02-23T12:38:30.337Z,9.93
2019-02-23T12:43:31.678Z,9.60
2019-02-23T12:48:33.101Z,9.10
2019-02-23T12:53:34.478Z,10.10
2019-02-23T12:58:35.819Z,9.10
2019-02-23T13:03:37.136Z,9.10
2019-02-23T13:09:18.383Z,10.40
2019-02-23T13:14:47.959Z,10.07
2019-02-23T13:20:00.978Z,10.40
2019-02-23T13:25:26.543Z,9.47
2019-02-23T13:30:36.691Z,9.50
2019-02-23T13:36:01.872Z,11.20
2019-02-23T13:41:42.236Z,9.67
2019-02-23T13:47:06.814Z,10.60
2019-02-23T13:52:26.015Z,9.37
2019-02-23T13:57:48.043Z,8.60
2019-02-23T14:03:14.580Z,9.47
2019-02-23T14:09:12.395Z,9.37
2019-02-23T14:14:25.204Z,8.50
2019-02-23T14:19:43.622Z,8.27
2019-02-23T14:25:14.571Z,9.00
2019-02-23T14:30:54.996Z,8.83
2019-02-23T14:36:25.998Z,8.83
2019-02-23T14:41:54.490Z,9.00
2019-02-23T14:47:18.996Z,7.10
2019-02-23T14:52:38.278Z,8.63
2019-02-23T14:58:16.673Z,8.23
2019-02-23T15:03:41.067Z,8.33
2019-02-23T15:09:22.940Z,7.93
2019-02-23T15:14:32.845Z,7.93
2019-02-23T15:20:11.778Z,7.37
2019-02-23T15:25:48.014Z,7.63
2019-02-23T15:31:26.429Z,6.90
2019-02-23T15:37:00.675Z,7.40
2019-02-23T15:42:14.778Z,8.07
2019-02-23T15:47:27.871Z,7.83
2019-02-23T15:52:29.249Z,8.03
2019-02-23T15:57:30.607Z,7.97
2019-02-23T16:02:32.063Z,8.10
2019-02-23T16:07:33.444Z,7.97
2019-02-23T16:12:34.770Z,8.53
2019-02-23T16:17:36.198Z,7.97
2019-02-23T16:22:37.602Z,8.60
2019-02-23T16:27:39.016Z,8.47
2019-02-23T16:32:40.334Z,8.77
2019-02-23T16:37:41.717Z,9.70
2019-02-23T16:42:43.055Z,9.63
2019-02-23T16:47:44.455Z,9.17
2019-02-23T16:52:45.918Z,8.70
2019-02-23T16:57:47.246Z,8.77
2019-02-23T17:02:48.594Z,8.90
2019-02-23T17:07:50.084Z,9.93
2019-02-23T17:12:51.476Z,10.10
2019-02-23T17:17:52.806Z,10.33
2019-02-23T17:22:54.214Z,9.90
2019-02-23T17:27:55.707Z,10.37
2019-02-23T17:32:57.030Z,10.10
2019-02-23T17:37:58.509Z,10.30
2019-02-23T17:43:00.112Z,10.63
2019-02-23T17:48:01.520Z,8.40
2019-02-23T17:53:02.991Z,10.03
2019-02-23T17:58:04.525Z,9.60
2019-02-23T18:03:06.151Z,10.27
2019-02-23T18:08:08.580Z,9.70
2019-02-23T18:13:10.010Z,10.40
2019-02-23T18:18:11.457Z,10.40
2019-02-23T18:23:12.788Z,10.77
2019-02-23T18:28:14.205Z,10.77
2019-02-23T18:33:16.062Z,11.37
2019-02-23T18:38:18.471Z,10.30
2019-02-23T18:43:19.942Z,11.70
2019-02-23T18:48:21.403Z,11.23
2019-02-23T18:53:22.831Z,11.70
2019-02-23T18:58:24.213Z,12.37
2019-02-23T19:03:25.569Z,11.17
2019-02-23T19:08:26.907Z,11.27
2019-02-23T19:13:28.308Z,11.40
2019-02-23T19:18:29.683Z,11.17
2019-02-23T19:23:31.125Z,12.47
2019-02-23T19:28:32.506Z,11.50
2019-02-23T19:33:33.840Z,12.83
2019-02-23T19:38:35.206Z,11.33
2019-02-23T19:43:36.592Z,14.00
2019-02-23T19:48:37.934Z,13.47
2019-02-23T19:53:40.829Z,12.80
2019-02-23T19:58:42.258Z,13.77
2019-02-23T20:03:43.586Z,13.23
2019-02-23T20:08:45.048Z,12.67
2019-02-23T20:13:46.520Z,13.33
2019-02-23T20:18:48.882Z,17.83
2019-02-23T20:23:50.255Z,17.10
2019-02-23T20:28:51.745Z,18.73
2019-02-23T20:33:54.087Z,20.57
2019-02-23T20:38:55.455Z,19.93
2019-02-23T20:43:57.891Z,18.30
2019-02-23T20:48:59.432Z,16.97
2019-02-23T20:54:00.758Z,17.87
2019-02-23T20:59:03.707Z,17.60
2019-02-23T21:04:05.029Z,18.00
2019-02-23T21:09:06.526Z,15.97
2019-02-23T21:14:07.876Z,15.47
2019-02-23T21:19:13.434Z,15.93
2019-02-23T21:24:14.914Z,15.23
2019-02-23T21:29:16.408Z,15.40
2019-02-23T21:34:17.854Z,15.03
2019-02-23T21:39:19.296Z,15.00
2019-02-23T21:44:20.678Z,15.23
2019-02-23T21:49:22.144Z,16.03
2019-02-23T21:54:23.568Z,15.57
2019-02-23T21:59:24.943Z,16.23
2019-02-23T22:04:26.931Z,15.00
2019-02-23T22:09:28.288Z,16.37
2019-02-23T22:14:29.714Z,15.83
2019-02-23T22:19:31.120Z,15.17
2019-02-23T22:24:32.662Z,14.47
2019-02-23T22:29:34.115Z,15.40
2019-02-23T22:34:35.618Z,15.47
2019-02-23T22:39:36.978Z,16.97
2019-02-23T22:44:38.336Z,16.23
2019-02-23T22:49:40.312Z,16.70
2019-02-23T22:54:42.024Z,16.50
2019-02-23T22:59:43.360Z,16.90
2019-02-23T23:04:45.782Z,17.03
2019-02-23T23:09:48.156Z,16.27
2019-02-23T23:14:49.607Z,16.43
2019-02-23T23:19:50.974Z,14.87
2019-02-23T23:24:52.644Z,15.20
2019-02-23T23:29:54.059Z,15.07
2019-02-23T23:34:55.492Z,14.50
2019-02-23T23:39:56.912Z,15.90
2019-02-23T23:44:59.484Z,16.27
2019-02-23T23:50:01.111Z,16.00
2019-02-23T23:55:03.690Z,18.07
